Citrix Systems Price to Sales Ratio 2006-2021 | CTXS

Historical PS ratio values for Citrix Systems (CTXS) over the last 10 years. The current P/S ratio for Citrix Systems as of September 20, 2021 is . For more information on how our historical price data is adjusted see the Stock Price Adjustment Guide.
Citrix Systems P/S Ratio Historical Data
Date Stock Price TTM Sales per Share Price to Sales Ratio
2021-09-20 110.30 4.39
2021-06-30 116.87 $25.11 4.65
2021-03-31 139.45 $25.02 5.57
2020-12-31 128.90 $25.62 5.03
2020-09-30 136.08 $25.17 5.41
2020-06-30 145.78 $24.60 5.92
2020-03-31 139.16 $23.83 5.84
2019-12-31 108.70 $22.18 4.90
2019-09-30 94.31 $21.69 4.35
2019-06-30 95.54 $21.13 4.52
2019-03-31 96.66 $20.66 4.68
2018-12-31 99.04 $20.33 4.87
2018-09-30 107.11 $19.83 5.40
2018-06-30 101.02 $19.34 5.22
2018-03-31 89.42 $18.68 4.79
2017-12-31 84.79 $18.10 4.69
2017-09-30 74.02 $17.77 4.17
2017-06-30 76.68 $17.55 4.37
2017-03-31 80.35 $17.41 4.62
2016-12-31 68.83 $17.45 3.94
2016-09-30 65.67 $14.49 4.53
2016-06-30 61.72 $15.27 4.04
2016-03-31 60.56 $15.89 3.81
2015-12-31 58.30 $16.36 3.56
2015-09-30 53.39 $19.61 2.72
2015-06-30 54.07 $19.16 2.82
2015-03-31 49.22 $18.82 2.62
2014-12-31 49.17 $18.17 2.71
2014-09-30 54.98 $17.46 3.15
2014-06-30 48.20 $16.65 2.89
2014-03-31 44.27 $15.95 2.77
2013-12-31 48.74 $15.47 3.15
2013-09-30 54.41 $15.12 3.60
2013-06-30 46.52 $14.73 3.16
2013-03-31 55.60 $14.10 3.94
2012-12-31 50.57 $13.67 3.70
2012-09-30 58.98 $13.00 4.54
2012-06-30 64.69 $12.60 5.13
2012-03-31 60.81 $12.12 5.02
2011-12-31 46.79 $11.57 4.05
2011-09-30 42.02 $11.10 3.79
2011-06-30 61.65 $10.59 5.82
2011-03-31 56.61 $10.24 5.53
2010-12-31 52.72 $9.87 5.34
2010-09-30 52.59 $9.53 5.52
2010-06-30 32.54 $9.21 3.53
2010-03-31 36.58 $8.91 4.11
2009-12-31 32.07 $8.74 3.67
2009-09-30 30.23 $8.53 3.54
2009-06-30 24.58 $8.53 2.88
2009-03-31 17.45 $8.48 2.06
2008-12-31 18.16 $8.44 2.15
2008-09-30 19.47 $8.35 2.33
2008-06-30 22.66 $8.07 2.81
2008-03-31 22.60 $7.79 2.90
2007-12-31 29.29 $7.48 3.92
2007-09-30 31.07 $7.06 4.40
2007-06-30 25.95 $6.66 3.90
2007-03-31 24.68 $6.29 3.92
2006-12-31 20.85 $6.02 3.46
Sector Industry Market Cap Revenue
Computer and Technology Computer Software $13.861B $3.237B
Citrix Systems, Inc. aims to power a world where people, organizations and things are securely connected and accessible to make the extraordinary possible. They help customers reimaging the future of work by providing the most comprehensive secure digital workspace that unifies the apps, data and services people need to be productive, and simplifies IT's ability to adopt and manage complex cloud environments. Citrix Systems become the leader in Workspace as a Service (WaaS) by delivering the industry's most comprehensive and integrated platform for secure app, data and network delivery as a service in the Citrix Cloud. Citrix Systems become the preferred and most-used solution for enterprise file synchronization and sharing (EFSS) for business users across all segments.
Stock Name Country Market Cap PE Ratio
Microsoft (MSFT) United States $2253.490B 37.63
Adobe (ADBE) United States $311.794B 67.19
Salesforce, Inc (CRM) United States $255.059B 76.18
Oracle (ORCL) United States $236.551B 20.42
SAP SE (SAP) Germany $176.069B 22.39
Intuit (INTU) United States $153.437B 74.91
Dassault Systemes SA (DASTY) France $78.049B 68.53
Autodesk (ADSK) United States $63.350B 105.94
VMware (VMW) United States $58.487B 27.49
Synopsys (SNPS) United States $49.646B 67.82
Cadence Design Systems (CDNS) United States $45.290B 63.42
ANSYS (ANSS) United States $31.815B 63.97
SS&C Technologies Holdings (SSNC) United States $17.957B 16.10
Nuance Communications (NUAN) United States $17.330B 153.06
PTC (PTC) United States $14.454B 50.47
Open Text (OTEX) Canada $13.906B 15.84
Pegasystems (PEGA) United States $10.746B 0.00
Manhattan Associates (MANH) United States $9.934B 105.87
Aspen Technology (AZPN) United States $8.519B 0.00
Trend Micro (TMICY) Japan $8.059B 30.14
Descartes Systems Group (DSGX) Canada $7.076B 100.75
MicroStrategy (MSTR) United States $5.988B 111.08
BlackBerry (BB) Canada $5.687B 250.75
Cornerstone OnDemand (CSOD) United States $3.815B 22.15
ACI Worldwide (ACIW) United States $3.677B 21.44
Blackbaud (BLKB) United States $3.401B 57.98
CommVault Systems (CVLT) United States $3.396B 88.13
Verint Systems (VRNT) United States $2.904B 21.04
Progress Software (PRGS) United States $2.017B 15.57
Bottomline Technologies (EPAY) United States $1.855B 176.70
QAD (QADB) United States $1.838B 121.51
PROS Holdings (PRO) United States $1.760B 0.00
Sapiens (SPNS) Israel $1.582B 28.31
Canaan (CAN) China $1.267B 0.00
OptimizeRx (OPRX) United States $1.260B 650.00
Avid Technology (AVID) United States $1.228B 30.59
Magic Software Enterprises (MGIC) Israel $1.014B 24.62
Simulations Plus (SLP) United States $0.880B 76.67
American Software (AMSWA) United States $0.811B 87.00
Icad Inc (ICAD) United States $0.261B 0.00
Smith Micro Software (SMSI) United States $0.249B 0.00
ServiceSource (SREV) United States $0.131B 0.00
Park City (PCYG) United States $0.105B 48.91
Neonode (NEON) Sweden $0.069B 0.00
BSQUARE (BSQR) United States $0.050B 0.00
NetSol Technologies (NTWK) United States $0.045B 17.95
GSE Systems (GVP) United States $0.028B 0.00